الصفحة الرئيسية
METAR-TAF:

METAR-TAF

مطار :

بندر كنغان, إيران

دائرة عرض: 27-49-14N, خط طول: 52-21-08E, ارتفاع: 662 متر

مراقبة الطقس الحالي

تاريخ ووقت الإصدار 6 دقيقة قبل الساعة 15:00UTC
ريح 10 عقدة من الجنوب/الجنوب الغربي
درجة الحرارة 38°درجة مئوية
الرطوبة 20%
ضغط 1002 hPa
الرؤية 10 كم أو أكثر
الغيوم لا تقل 1500 م ولا وجود لمزنة ركامية السحاب الأسود

METAR: OIBJ 201500Z 21010KT CAVOK 38/11 Q1001 A2958

زمن: 19:36 (15:06 UTC)


TAF: مفقودة

أرصاد الطقس والتوقعات من أكثر من 4000 مطار (تقارير الطقس للمطار METAR والتنبؤ بالطقس بالمطارTAF).

المحطات المتاحة هي النقط الصفراء والحمراء على الخريطة.

حرك المؤشر فوق النقطة لمعرفة اسم المحطة.

ثم انقر لمعرفة أرصاد وتوقعات الطقس.

لتغيير الخارطة: اضغط على الأزرار الخضراء مع رمز الصليب الأسود للتكبير. على الزر الأخضر مع شرطة للتصغير، أو على الأسهم الخضراء للخرائط المجاورة.


METAR-TAF: